Terminal Aerodrome Forecast
Issued by NWS

Home | Current Version | Previous Version | Text Only | Print | Product List | Glossary On
Versions: 1 2 3 4 5 6 7 8 9 10 11 12 13 14 15
023
FTUS43 KJKL 122320
TAFSME
TAF
KSME 122320Z 1300/1324 29006KT P6SM FEW300
     FM131600 22014G22KT P6SM SCT060 BKN250=

USA.gov is the U.S. government's official web portal to all federal, state and local government web resources and services.